createdAt,value
2022-08-30T00:00:09.777Z,1014.84
2022-08-30T00:01:14.206Z,1014.85
2022-08-30T00:02:10.163Z,1014.84
2022-08-30T00:03:10.395Z,1014.88
2022-08-30T00:04:10.513Z,1014.86
2022-08-30T00:05:10.680Z,1014.87
2022-08-30T00:06:10.844Z,1014.87
2022-08-30T00:07:11.013Z,1014.86
2022-08-30T00:08:11.165Z,1014.85
2022-08-30T00:09:11.318Z,1014.83
2022-08-30T00:10:11.496Z,1014.85
2022-08-30T00:11:11.651Z,1014.86
2022-08-30T00:12:11.822Z,1014.91
2022-08-30T00:13:11.976Z,1014.90
2022-08-30T00:14:12.151Z,1014.89
2022-08-30T00:15:12.370Z,1014.90
2022-08-30T00:16:12.597Z,1014.93
2022-08-30T00:17:12.705Z,1014.92
2022-08-30T00:18:12.870Z,1014.91
2022-08-30T00:19:13.055Z,1014.91
2022-08-30T00:20:13.232Z,1014.90
2022-08-30T00:21:13.397Z,1014.93
2022-08-30T00:22:13.555Z,1014.91
2022-08-30T00:23:13.808Z,1014.93
2022-08-30T00:24:13.897Z,1014.91
2022-08-30T00:25:14.071Z,1014.92
2022-08-30T00:26:14.239Z,1014.90
2022-08-30T00:27:14.434Z,1014.92
2022-08-30T00:28:14.585Z,1014.92
2022-08-30T00:29:14.745Z,1014.92
2022-08-30T00:30:14.926Z,1014.98
2022-08-30T00:31:15.404Z,1014.94
2022-08-30T00:32:15.285Z,1014.98
2022-08-30T00:33:15.739Z,1014.98
2022-08-30T00:34:15.638Z,1014.98
2022-08-30T00:35:15.813Z,1014.97
2022-08-30T00:36:16.015Z,1014.97
2022-08-30T00:37:16.162Z,1014.99
2022-08-30T00:38:16.323Z,1014.92
2022-08-30T00:39:16.483Z,1014.95
2022-08-30T00:40:16.684Z,1014.97
2022-08-30T00:41:16.834Z,1014.94
2022-08-30T00:42:16.993Z,1014.93
2022-08-30T00:43:17.499Z,1014.93
2022-08-30T00:44:17.272Z,1014.93
2022-08-30T00:45:17.457Z,1014.88
2022-08-30T00:46:17.706Z,1014.88
2022-08-30T00:47:17.771Z,1014.89
2022-08-30T00:48:17.937Z,1014.88
2022-08-30T00:49:18.112Z,1014.90
2022-08-30T00:50:18.282Z,1014.85
2022-08-30T00:51:18.441Z,1014.91
2022-08-30T00:52:18.607Z,1014.87
2022-08-30T00:53:18.947Z,1014.90
2022-08-30T00:54:18.974Z,1014.94
2022-08-30T00:55:19.160Z,1014.94
2022-08-30T00:56:19.330Z,1014.93
2022-08-30T00:57:19.511Z,1014.98
2022-08-30T00:58:19.672Z,1014.96
2022-08-30T00:59:19.863Z,1014.95
2022-08-30T01:00:20.055Z,1014.97
2022-08-30T01:01:20.229Z,1014.99
2022-08-30T01:02:20.437Z,1015.01
2022-08-30T01:03:20.581Z,1015.00
2022-08-30T01:04:20.759Z,1015.02
2022-08-30T01:05:21.086Z,1015.02
2022-08-30T01:06:21.134Z,1015.03
2022-08-30T01:07:21.300Z,1015.04
2022-08-30T01:08:21.465Z,1015.09
2022-08-30T01:09:21.633Z,1015.07
2022-08-30T01:10:21.810Z,1015.07
2022-08-30T01:11:21.979Z,1015.10
2022-08-30T01:12:22.144Z,1015.09
2022-08-30T01:13:22.322Z,1015.12
2022-08-30T01:14:26.018Z,1015.10
2022-08-30T01:15:22.725Z,1015.11
2022-08-30T01:16:22.946Z,1015.11
2022-08-30T01:17:23.310Z,1015.11
2022-08-30T01:18:23.127Z,1015.12
2022-08-30T01:19:23.292Z,1015.12
2022-08-30T01:20:23.465Z,1015.12
2022-08-30T01:21:23.635Z,1015.13
2022-08-30T01:22:23.797Z,1015.14
2022-08-30T01:23:23.980Z,1015.13
2022-08-30T01:24:24.139Z,1015.12
2022-08-30T01:25:24.323Z,1015.12
2022-08-30T01:26:24.487Z,1015.09
2022-08-30T01:27:24.668Z,1015.10
2022-08-30T01:28:24.828Z,1015.07
2022-08-30T01:29:24.999Z,1015.07
2022-08-30T01:30:25.172Z,1015.09
2022-08-30T01:31:25.383Z,1015.07
2022-08-30T01:32:29.090Z,1015.04
2022-08-30T01:33:25.721Z,1015.05
2022-08-30T01:34:25.878Z,1015.06
2022-08-30T01:35:26.084Z,1015.06
2022-08-30T01:36:26.249Z,1015.04
2022-08-30T01:37:26.412Z,1015.03
2022-08-30T01:38:26.577Z,1015.04
2022-08-30T01:39:26.766Z,1015.08
2022-08-30T01:40:26.992Z,1015.06
2022-08-30T01:41:27.174Z,1015.05
2022-08-30T01:42:28.020Z,1015.06
2022-08-30T01:43:27.509Z,1015.10
2022-08-30T01:44:27.767Z,1015.13
2022-08-30T01:45:27.841Z,1015.10
2022-08-30T01:46:28.058Z,1015.13
2022-08-30T01:47:28.223Z,1015.10
2022-08-30T01:48:31.140Z,1015.11
2022-08-30T01:49:28.611Z,1015.13
2022-08-30T01:50:28.778Z,1015.07
2022-08-30T01:51:28.953Z,1015.06
2022-08-30T01:52:29.114Z,1015.05
2022-08-30T01:53:29.281Z,1015.05
2022-08-30T01:54:36.535Z,1015.02
2022-08-30T01:55:30.573Z,1015.03
2022-08-30T01:56:29.745Z,1015.01
2022-08-30T01:57:29.898Z,1015.00
2022-08-30T01:58:30.059Z,1015.03
2022-08-30T01:59:30.234Z,1015.02
2022-08-30T02:00:30.416Z,1015.02
2022-08-30T02:01:30.633Z,1015.03
2022-08-30T02:02:30.778Z,1015.04
2022-08-30T02:03:30.977Z,1015.06
2022-08-30T02:04:31.109Z,1015.03
2022-08-30T02:05:31.278Z,1015.03
2022-08-30T02:06:31.456Z,1014.99
2022-08-30T02:07:31.614Z,1015.01
2022-08-30T02:08:31.775Z,1014.99
2022-08-30T02:09:31.928Z,1014.98
2022-08-30T02:10:32.100Z,1014.99
2022-08-30T02:11:32.285Z,1014.96
2022-08-30T02:12:32.444Z,1015.00
2022-08-30T02:13:32.613Z,1015.02
2022-08-30T02:14:32.771Z,1015.01
2022-08-30T02:15:41.414Z,1015.00
2022-08-30T02:16:34.140Z,1014.96
2022-08-30T02:17:33.195Z,1014.97
2022-08-30T02:18:33.361Z,1014.93
2022-08-30T02:19:33.524Z,1014.93
2022-08-30T02:20:33.679Z,1014.91
2022-08-30T02:21:33.877Z,1014.96
2022-08-30T02:22:34.017Z,1014.97
2022-08-30T02:23:34.185Z,1014.96
2022-08-30T02:24:34.337Z,1014.98
2022-08-30T02:25:34.491Z,1014.94
2022-08-30T02:26:34.667Z,1014.93
2022-08-30T02:27:34.830Z,1014.92
2022-08-30T02:28:34.990Z,1014.93
2022-08-30T02:29:36.107Z,1014.92
2022-08-30T02:30:35.314Z,1014.93
2022-08-30T02:31:35.470Z,1014.86
2022-08-30T02:32:35.620Z,1014.86
2022-08-30T02:33:35.768Z,1014.92
2022-08-30T02:34:35.903Z,1014.90
2022-08-30T02:35:36.587Z,1014.92
2022-08-30T02:36:36.272Z,1014.92
2022-08-30T02:37:36.433Z,1014.91
2022-08-30T02:38:36.591Z,1014.96
2022-08-30T02:39:36.750Z,1014.91
2022-08-30T02:40:37.014Z,1014.92
2022-08-30T02:41:37.113Z,1014.91
2022-08-30T02:42:37.277Z,1014.92
2022-08-30T02:43:37.439Z,1014.94
2022-08-30T02:44:37.588Z,1014.94
2022-08-30T02:45:37.766Z,1014.92
2022-08-30T02:46:37.950Z,1014.94
2022-08-30T02:47:38.122Z,1015.00
2022-08-30T02:48:38.279Z,1014.99
2022-08-30T02:49:38.443Z,1015.00
2022-08-30T02:50:38.599Z,1015.00
2022-08-30T02:51:38.777Z,1015.01
2022-08-30T02:52:38.933Z,1015.01
2022-08-30T02:53:39.129Z,1015.01
2022-08-30T02:54:39.291Z,1015.01
2022-08-30T02:55:39.449Z,1015.00
2022-08-30T02:56:39.628Z,1014.99
2022-08-30T02:57:39.783Z,1014.95
2022-08-30T02:58:39.952Z,1014.96
2022-08-30T02:59:40.119Z,1014.95
2022-08-30T03:00:40.302Z,1014.92
2022-08-30T03:01:40.528Z,1014.94
2022-08-30T03:02:40.667Z,1014.91
2022-08-30T03:03:40.882Z,1014.92
2022-08-30T03:04:40.945Z,1014.96
2022-08-30T03:05:41.111Z,1014.97
2022-08-30T03:06:41.315Z,1014.95
2022-08-30T03:07:41.471Z,1014.98
2022-08-30T03:08:41.639Z,1014.97
2022-08-30T03:09:41.797Z,1014.96
2022-08-30T03:10:41.961Z,1014.97
2022-08-30T03:11:42.152Z,1014.94
2022-08-30T03:12:42.313Z,1014.98
2022-08-30T03:13:42.485Z,1014.94
2022-08-30T03:14:42.630Z,1014.95
2022-08-30T03:15:42.808Z,1014.92
2022-08-30T03:16:43.012Z,1014.93
2022-08-30T03:17:43.166Z,1014.94
2022-08-30T03:18:43.325Z,1014.94
2022-08-30T03:19:43.488Z,1014.94
2022-08-30T03:20:44.028Z,1014.92
2022-08-30T03:21:44.787Z,1014.96
2022-08-30T03:22:43.939Z,1014.95
2022-08-30T03:23:44.120Z,1014.99
2022-08-30T03:24:44.274Z,1015.00
2022-08-30T03:25:44.435Z,1015.00
2022-08-30T03:26:46.499Z,1014.98
2022-08-30T03:27:44.753Z,1014.98
2022-08-30T03:28:44.925Z,1014.97
2022-08-30T03:29:45.079Z,1015.01
2022-08-30T03:30:45.249Z,1014.98
2022-08-30T03:31:52.529Z,1015.00
2022-08-30T03:32:46.545Z,1014.99
2022-08-30T03:33:45.704Z,1015.01
2022-08-30T03:34:45.864Z,1014.99
2022-08-30T03:35:46.025Z,1015.00
2022-08-30T03:36:46.199Z,1015.01
2022-08-30T03:37:46.364Z,1014.99
2022-08-30T03:38:46.537Z,1014.97
2022-08-30T03:39:46.701Z,1015.03
2022-08-30T03:40:46.820Z,1015.02
2022-08-30T03:41:47.002Z,1015.04
2022-08-30T03:42:47.167Z,1015.06
2022-08-30T03:43:47.372Z,1015.06
2022-08-30T03:44:47.498Z,1015.04
2022-08-30T03:45:47.771Z,1015.08
2022-08-30T03:46:47.842Z,1015.08
2022-08-30T03:47:48.019Z,1015.11
2022-08-30T03:48:48.184Z,1015.12
2022-08-30T03:49:48.368Z,1015.11
2022-08-30T03:50:48.547Z,1015.11
2022-08-30T03:51:48.736Z,1015.12
2022-08-30T03:52:48.902Z,1015.13
2022-08-30T03:53:49.089Z,1015.16
2022-08-30T03:54:49.252Z,1015.12
2022-08-30T03:55:49.411Z,1015.15
2022-08-30T03:56:49.591Z,1015.16
2022-08-30T03:57:49.761Z,1015.16
2022-08-30T03:58:49.952Z,1015.23
2022-08-30T03:59:50.120Z,1015.18
2022-08-30T04:00:50.408Z,1015.17
2022-08-30T04:01:50.537Z,1015.20
2022-08-30T04:02:50.624Z,1015.21
2022-08-30T04:03:50.785Z,1015.21
2022-08-30T04:04:50.940Z,1015.19
2022-08-30T04:05:51.112Z,1015.21
2022-08-30T04:06:51.300Z,1015.21
2022-08-30T04:07:51.466Z,1015.21
2022-08-30T04:08:51.622Z,1015.18
2022-08-30T04:09:51.801Z,1015.22
2022-08-30T04:10:51.980Z,1015.20
2022-08-30T04:11:52.159Z,1015.21
2022-08-30T04:12:52.358Z,1015.23
2022-08-30T04:13:52.563Z,1015.20
2022-08-30T04:14:52.739Z,1015.20
2022-08-30T04:15:52.909Z,1015.21
2022-08-30T04:16:53.137Z,1015.20
2022-08-30T04:17:53.290Z,1015.20
2022-08-30T04:18:53.459Z,1015.19
2022-08-30T04:19:53.626Z,1015.25
2022-08-30T04:20:53.799Z,1015.25
2022-08-30T04:21:53.987Z,1015.27
2022-08-30T04:22:54.177Z,1015.29
2022-08-30T04:23:54.343Z,1015.27
2022-08-30T04:24:54.519Z,1015.27
2022-08-30T04:25:54.692Z,1015.28
2022-08-30T04:26:54.880Z,1015.28
2022-08-30T04:27:55.060Z,1015.30
2022-08-30T04:28:55.230Z,1015.28
2022-08-30T04:29:56.277Z,1015.26
2022-08-30T04:30:55.536Z,1015.26
2022-08-30T04:31:55.801Z,1015.26
2022-08-30T04:32:58.780Z,1015.30
2022-08-30T04:33:56.034Z,1015.30
2022-08-30T04:34:56.205Z,1015.31
2022-08-30T04:35:56.401Z,1015.31
2022-08-30T04:36:56.606Z,1015.34
2022-08-30T04:38:53.769Z,1015.36
2022-08-30T04:39:53.915Z,1015.41
2022-08-30T04:40:54.067Z,1015.33
2022-08-30T04:41:54.215Z,1015.38
2022-08-30T04:42:54.422Z,1015.40
2022-08-30T04:43:54.582Z,1015.41
2022-08-30T04:44:54.743Z,1015.41
2022-08-30T04:45:54.983Z,1015.41
2022-08-30T04:46:55.096Z,1015.45
2022-08-30T04:47:56.357Z,1015.45
2022-08-30T04:48:55.402Z,1015.45
2022-08-30T04:49:55.606Z,1015.42
2022-08-30T04:50:55.705Z,1015.42
2022-08-30T04:51:55.794Z,1015.43
2022-08-30T04:52:55.962Z,1015.42
2022-08-30T04:53:56.169Z,1015.45
2022-08-30T04:54:56.229Z,1015.41
2022-08-30T04:55:56.397Z,1015.46
2022-08-30T04:56:56.495Z,1015.41
2022-08-30T04:57:56.673Z,1015.45
2022-08-30T04:58:56.817Z,1015.46
2022-08-30T04:59:56.956Z,1015.44
2022-08-30T05:00:57.170Z,1015.48
2022-08-30T05:01:57.288Z,1015.52
2022-08-30T05:02:57.349Z,1015.47
2022-08-30T05:03:57.502Z,1015.45
2022-08-30T05:04:57.660Z,1015.48
2022-08-30T05:05:57.800Z,1015.47
2022-08-30T05:06:57.932Z,1015.48
2022-08-30T05:07:58.315Z,1015.48
2022-08-30T05:08:58.244Z,1015.50
2022-08-30T05:09:58.379Z,1015.45
2022-08-30T05:10:58.539Z,1015.47
2022-08-30T05:11:58.671Z,1015.50
2022-08-30T05:12:58.829Z,1015.49
2022-08-30T05:13:58.989Z,1015.49
2022-08-30T05:14:59.111Z,1015.49
2022-08-30T05:15:59.321Z,1015.49
2022-08-30T05:16:59.446Z,1015.53
2022-08-30T05:17:59.501Z,1015.54
2022-08-30T05:18:59.655Z,1015.55
2022-08-30T05:19:59.809Z,1015.54
2022-08-30T05:20:59.949Z,1015.56
2022-08-30T05:22:00.082Z,1015.56
2022-08-30T05:23:00.248Z,1015.61
2022-08-30T05:24:00.465Z,1015.59
2022-08-30T05:25:00.496Z,1015.58
2022-08-30T05:26:00.658Z,1015.62
2022-08-30T05:27:00.813Z,1015.61
2022-08-30T05:28:00.944Z,1015.62
2022-08-30T05:29:01.088Z,1015.66
2022-08-30T05:30:01.218Z,1015.64
2022-08-30T05:31:01.400Z,1015.67
2022-08-30T05:32:01.512Z,1015.62
2022-08-30T05:33:01.660Z,1015.65
2022-08-30T05:34:01.806Z,1015.66
2022-08-30T05:35:01.959Z,1015.68
2022-08-30T05:36:02.081Z,1015.64
2022-08-30T05:37:02.225Z,1015.66
2022-08-30T05:38:02.410Z,1015.68
2022-08-30T05:39:02.451Z,1015.61
2022-08-30T05:40:02.661Z,1015.64
2022-08-30T05:41:07.786Z,1015.66
2022-08-30T05:42:03.861Z,1015.64
2022-08-30T05:43:03.023Z,1015.70
2022-08-30T05:44:03.150Z,1015.70
2022-08-30T05:45:03.309Z,1015.69
2022-08-30T05:46:03.448Z,1015.72
2022-08-30T05:47:03.581Z,1015.70
2022-08-30T05:48:03.788Z,1015.73
2022-08-30T05:49:03.956Z,1015.74
2022-08-30T05:50:04.137Z,1015.70
2022-08-30T05:51:04.340Z,1015.75
2022-08-30T05:52:04.652Z,1015.74
2022-08-30T05:53:04.587Z,1015.73
2022-08-30T05:54:04.748Z,1015.76
2022-08-30T05:55:04.845Z,1015.77
2022-08-30T05:56:05.073Z,1015.75
2022-08-30T05:57:05.125Z,1015.75
2022-08-30T05:58:05.326Z,1015.73
2022-08-30T05:59:05.361Z,1015.72
2022-08-30T06:00:05.508Z,1015.74
2022-08-30T06:01:05.705Z,1015.74
2022-08-30T06:02:05.950Z,1015.73
2022-08-30T06:03:06.103Z,1015.75
2022-08-30T06:04:06.037Z,1015.74
2022-08-30T06:05:06.212Z,1015.75
2022-08-30T06:06:06.282Z,1015.77
2022-08-30T06:07:06.568Z,1015.77
2022-08-30T06:08:06.600Z,1015.79
2022-08-30T06:09:06.809Z,1015.78
2022-08-30T06:10:06.842Z,1015.77
2022-08-30T06:11:07.000Z,1015.80
2022-08-30T06:12:07.156Z,1015.75
2022-08-30T06:13:07.372Z,1015.74
2022-08-30T06:14:08.249Z,1015.70
2022-08-30T06:15:07.489Z,1015.69
2022-08-30T06:16:07.680Z,1015.74
2022-08-30T06:17:07.755Z,1015.77
2022-08-30T06:18:08.915Z,1015.76
2022-08-30T06:19:07.925Z,1015.72
2022-08-30T06:20:07.970Z,1015.73
2022-08-30T06:21:11.170Z,1015.76
2022-08-30T06:22:09.244Z,1015.76
2022-08-30T06:23:08.416Z,1015.77
2022-08-30T06:24:08.702Z,1015.79
2022-08-30T06:25:08.616Z,1015.77
2022-08-30T06:26:08.774Z,1015.74
2022-08-30T06:27:08.946Z,1015.79
2022-08-30T06:28:09.342Z,1015.79
2022-08-30T06:29:09.597Z,1015.73
2022-08-30T06:30:09.304Z,1015.73
2022-08-30T06:31:09.617Z,1015.74
2022-08-30T06:32:09.582Z,1015.76
2022-08-30T06:33:09.754Z,1015.79
2022-08-30T06:34:09.761Z,1015.79
2022-08-30T06:35:09.904Z,1015.79
2022-08-30T06:36:10.058Z,1015.81
2022-08-30T06:37:10.190Z,1015.83
2022-08-30T06:38:12.009Z,1015.86
2022-08-30T06:39:10.529Z,1015.87
2022-08-30T06:40:10.653Z,1015.89
2022-08-30T06:41:10.709Z,1015.90
2022-08-30T06:42:11.385Z,1015.90
2022-08-30T06:43:10.906Z,1015.93
2022-08-30T06:44:10.956Z,1015.88
2022-08-30T06:45:11.368Z,1015.88
2022-08-30T06:46:11.241Z,1015.88
2022-08-30T06:47:11.288Z,1015.85
2022-08-30T06:48:11.463Z,1015.90
2022-08-30T06:49:11.502Z,1015.87
2022-08-30T06:50:12.151Z,1015.86
2022-08-30T06:51:11.689Z,1015.87
2022-08-30T06:52:11.850Z,1015.86
2022-08-30T06:53:11.941Z,1015.82
2022-08-30T06:54:12.252Z,1015.88
2022-08-30T06:55:12.075Z,1015.90
2022-08-30T06:56:16.535Z,1015.92
2022-08-30T06:57:12.269Z,1015.90
2022-08-30T06:58:12.405Z,1015.89
2022-08-30T06:59:12.565Z,1015.90
2022-08-30T07:00:12.568Z,1015.86
2022-08-30T07:01:12.884Z,1015.89
2022-08-30T07:02:12.962Z,1015.88
2022-08-30T07:03:13.050Z,1015.92
2022-08-30T07:04:12.995Z,1015.95
2022-08-30T07:05:16.750Z,1015.93
2022-08-30T07:06:14.228Z,1015.96
2022-08-30T07:07:13.366Z,1015.96
2022-08-30T07:08:13.475Z,1015.92
2022-08-30T07:09:13.633Z,1015.91
2022-08-30T07:10:13.726Z,1015.93
2022-08-30T07:11:13.846Z,1015.90
2022-08-30T07:12:13.978Z,1015.90
2022-08-30T07:13:14.406Z,1015.90
2022-08-30T07:14:14.221Z,1015.91
2022-08-30T07:15:14.545Z,1015.93
2022-08-30T07:16:14.509Z,1015.95
2022-08-30T07:17:14.531Z,1015.97
2022-08-30T07:18:14.715Z,1015.94
2022-08-30T07:19:20.326Z,1015.94
2022-08-30T07:20:16.175Z,1015.95
2022-08-30T07:21:14.965Z,1015.99
2022-08-30T07:22:15.070Z,1015.98
2022-08-30T07:23:15.245Z,1015.96
2022-08-30T07:24:15.314Z,1015.98
2022-08-30T07:25:15.420Z,1016.00
2022-08-30T07:26:15.543Z,1016.00
2022-08-30T07:27:15.666Z,1016.03
2022-08-30T07:28:15.773Z,1016.02
2022-08-30T07:29:15.891Z,1015.99
2022-08-30T07:30:16.002Z,1016.03
2022-08-30T07:31:16.114Z,1016.00
2022-08-30T07:32:16.202Z,1015.97
2022-08-30T07:33:17.186Z,1015.99
2022-08-30T07:34:16.462Z,1015.98
2022-08-30T07:35:16.573Z,1016.00
2022-08-30T07:36:16.682Z,1016.02
2022-08-30T07:37:18.211Z,1016.02
2022-08-30T07:38:17.007Z,1016.00
2022-08-30T07:39:17.014Z,1016.05
2022-08-30T07:40:17.145Z,1016.03
2022-08-30T07:41:17.241Z,1016.03
2022-08-30T07:42:17.339Z,1016.03
2022-08-30T07:43:17.624Z,1015.99
2022-08-30T07:44:17.567Z,1016.03
2022-08-30T07:45:17.538Z,1016.02
2022-08-30T07:46:17.665Z,1016.00
2022-08-30T07:47:17.727Z,1016.06
2022-08-30T07:48:17.834Z,1016.03
2022-08-30T07:49:17.950Z,1016.12
2022-08-30T07:50:18.083Z,1016.15
2022-08-30T07:51:18.168Z,1016.17
2022-08-30T07:52:18.252Z,1016.16
2022-08-30T07:53:18.455Z,1016.18
2022-08-30T07:54:18.439Z,1016.18
2022-08-30T07:55:18.520Z,1016.16
2022-08-30T07:56:18.603Z,1016.18
2022-08-30T07:57:18.753Z,1016.13
2022-08-30T07:58:18.830Z,1016.14
2022-08-30T07:59:18.779Z,1016.14
2022-08-30T08:00:18.881Z,1016.15
2022-08-30T08:01:19.038Z,1016.10
2022-08-30T08:02:19.102Z,1016.12
2022-08-30T08:03:19.071Z,1016.11
2022-08-30T08:04:19.172Z,1016.15
2022-08-30T08:05:22.056Z,1016.14
2022-08-30T08:06:20.319Z,1016.09
2022-08-30T08:07:19.391Z,1016.16
2022-08-30T08:08:19.473Z,1016.19
2022-08-30T08:09:19.575Z,1016.16
2022-08-30T08:10:19.639Z,1016.22
2022-08-30T08:11:19.730Z,1016.17
2022-08-30T08:12:19.810Z,1016.14
2022-08-30T08:13:20.159Z,1016.13
2022-08-30T08:14:19.982Z,1016.17
2022-08-30T08:15:20.075Z,1016.13
2022-08-30T08:16:20.228Z,1016.10
2022-08-30T08:17:20.186Z,1016.11
2022-08-30T08:18:20.286Z,1016.09
2022-08-30T08:19:20.391Z,1016.16
2022-08-30T08:20:20.492Z,1016.12
2022-08-30T08:21:20.575Z,1016.12
2022-08-30T08:22:21.727Z,1016.13
2022-08-30T08:23:20.700Z,1016.12
2022-08-30T08:24:20.823Z,1016.12
2022-08-30T08:25:20.935Z,1016.12
2022-08-30T08:26:21.053Z,1016.14
2022-08-30T08:27:21.147Z,1016.18
2022-08-30T08:28:21.243Z,1016.25
2022-08-30T08:29:21.388Z,1016.25
2022-08-30T08:30:21.479Z,1016.28
2022-08-30T08:31:21.662Z,1016.23
2022-08-30T08:32:21.681Z,1016.24
2022-08-30T08:33:21.792Z,1016.31
2022-08-30T08:34:21.885Z,1016.30
2022-08-30T08:35:22.002Z,1016.30
2022-08-30T08:36:22.101Z,1016.30
2022-08-30T08:37:22.191Z,1016.31
2022-08-30T08:38:23.255Z,1016.33
2022-08-30T08:39:22.362Z,1016.38
2022-08-30T08:40:22.502Z,1016.38
2022-08-30T08:41:22.599Z,1016.30
2022-08-30T08:42:22.705Z,1016.37
2022-08-30T08:43:22.815Z,1016.39
2022-08-30T08:44:22.924Z,1016.41
2022-08-30T08:45:23.035Z,1016.42
2022-08-30T08:46:23.123Z,1016.44
2022-08-30T08:47:23.222Z,1016.39
2022-08-30T08:48:24.709Z,1016.37
2022-08-30T08:49:24.360Z,1016.38
2022-08-30T08:50:23.461Z,1016.32
2022-08-30T08:51:23.552Z,1016.32
2022-08-30T08:52:23.628Z,1016.33
2022-08-30T08:53:45.150Z,1016.30
2022-08-30T08:54:24.757Z,1016.41
2022-08-30T08:55:23.864Z,1016.31
2022-08-30T08:56:23.954Z,1016.34
2022-08-30T08:57:24.710Z,1016.37
2022-08-30T08:58:24.134Z,1016.38
2022-08-30T08:59:24.234Z,1016.37
2022-08-30T09:00:24.354Z,1016.38
2022-08-30T09:01:24.527Z,1016.36
2022-08-30T09:02:24.561Z,1016.37
2022-08-30T09:03:24.519Z,1016.39
2022-08-30T09:04:24.602Z,1016.40
2022-08-30T09:05:24.811Z,1016.41
2022-08-30T09:06:24.773Z,1016.39
2022-08-30T09:07:24.854Z,1016.34
2022-08-30T09:08:24.971Z,1016.38
2022-08-30T09:09:25.052Z,1016.44
2022-08-30T09:10:46.874Z,1016.38
2022-08-30T09:11:26.266Z,1016.37
2022-08-30T09:12:25.265Z,1016.38
2022-08-30T09:13:25.319Z,1016.34
2022-08-30T09:14:30.146Z,1016.34
2022-08-30T09:15:26.598Z,1016.37
2022-08-30T09:16:25.597Z,1016.35
2022-08-30T09:17:25.704Z,1016.41
2022-08-30T09:18:25.805Z,1016.39
2022-08-30T09:19:25.875Z,1016.42
2022-08-30T09:20:25.989Z,1016.40
2022-08-30T09:21:26.092Z,1016.42
2022-08-30T09:22:26.170Z,1016.42
2022-08-30T09:23:26.254Z,1016.43
2022-08-30T09:24:26.342Z,1016.46
2022-08-30T09:25:26.442Z,1016.45
2022-08-30T09:26:26.540Z,1016.43
2022-08-30T09:27:26.621Z,1016.40
2022-08-30T09:28:26.741Z,1016.48
2022-08-30T09:29:26.832Z,1016.43
2022-08-30T09:30:27.182Z,1016.42
2022-08-30T09:31:27.054Z,1016.49
2022-08-30T09:32:27.120Z,1016.52
2022-08-30T09:33:27.242Z,1016.47
2022-08-30T09:34:27.340Z,1016.52
2022-08-30T09:35:27.467Z,1016.51
2022-08-30T09:36:27.581Z,1016.49
2022-08-30T09:37:27.677Z,1016.54
2022-08-30T09:38:27.772Z,1016.54
2022-08-30T09:39:27.891Z,1016.53
2022-08-30T09:40:28.017Z,1016.58
2022-08-30T09:41:28.196Z,1016.54
2022-08-30T09:42:28.299Z,1016.55
2022-08-30T09:43:28.542Z,1016.56
2022-08-30T09:44:28.505Z,1016.57
2022-08-30T09:45:28.611Z,1016.53
2022-08-30T09:46:28.786Z,1016.56
2022-08-30T09:47:28.832Z,1016.57
2022-08-30T09:48:28.982Z,1016.56
2022-08-30T09:49:28.986Z,1016.59
2022-08-30T09:50:29.091Z,1016.60
2022-08-30T09:51:29.191Z,1016.57
2022-08-30T09:52:29.254Z,1016.62
2022-08-30T09:53:29.358Z,1016.53
2022-08-30T09:54:31.044Z,1016.53
2022-08-30T09:55:29.613Z,1016.53
2022-08-30T09:56:29.746Z,1016.50
2022-08-30T09:57:33.570Z,1016.51
2022-08-30T09:58:30.192Z,1016.55
2022-08-30T09:59:30.057Z,1016.52
2022-08-30T10:00:30.175Z,1016.56
2022-08-30T10:01:30.357Z,1016.56
2022-08-30T10:02:30.344Z,1016.55
2022-08-30T10:04:31.573Z,1016.56
2022-08-30T10:05:31.539Z,1016.55
2022-08-30T10:06:30.725Z,1016.53
2022-08-30T10:07:30.829Z,1016.52
2022-08-30T10:08:30.931Z,1016.49
2022-08-30T10:09:31.031Z,1016.53
2022-08-30T10:10:31.136Z,1016.49
2022-08-30T10:11:31.257Z,1016.49
2022-08-30T10:12:31.367Z,1016.50
2022-08-30T10:13:33.808Z,1016.46
2022-08-30T10:14:31.506Z,1016.51
2022-08-30T10:15:31.630Z,1016.48
2022-08-30T10:16:31.767Z,1016.53
2022-08-30T10:17:31.843Z,1016.49
2022-08-30T10:18:31.972Z,1016.52
2022-08-30T10:19:32.068Z,1016.46
2022-08-30T10:20:32.168Z,1016.52
2022-08-30T10:21:32.274Z,1016.54
2022-08-30T10:22:32.339Z,1016.54
2022-08-30T10:23:32.433Z,1016.48
2022-08-30T10:24:33.575Z,1016.52
2022-08-30T10:25:32.620Z,1016.50
2022-08-30T10:26:32.719Z,1016.46
2022-08-30T10:27:32.801Z,1016.42
2022-08-30T10:28:32.890Z,1016.47
2022-08-30T10:29:32.978Z,1016.47
2022-08-30T10:30:33.074Z,1016.45
2022-08-30T10:31:33.130Z,1016.45
2022-08-30T10:32:33.211Z,1016.49
2022-08-30T10:33:33.308Z,1016.52
2022-08-30T10:34:33.381Z,1016.49
2022-08-30T10:35:38.612Z,1016.48
2022-08-30T10:36:34.511Z,1016.52
2022-08-30T10:37:33.578Z,1016.41
2022-08-30T10:38:41.632Z,1016.46
2022-08-30T10:39:33.688Z,1016.44
2022-08-30T10:40:33.835Z,1016.46
2022-08-30T10:41:33.823Z,1016.42
2022-08-30T10:42:37.976Z,1016.40
2022-08-30T10:43:35.374Z,1016.42
2022-08-30T10:44:33.968Z,1016.40
2022-08-30T10:45:34.038Z,1016.38
2022-08-30T10:46:34.112Z,1016.35
2022-08-30T10:47:34.143Z,1016.38
2022-08-30T10:48:34.209Z,1016.40
2022-08-30T10:49:34.281Z,1016.42
2022-08-30T10:50:38.941Z,1016.42
2022-08-30T10:51:35.303Z,1016.36
2022-08-30T10:52:34.421Z,1016.34
2022-08-30T10:53:34.497Z,1016.41
2022-08-30T10:54:34.594Z,1016.42
2022-08-30T10:55:34.643Z,1016.43
2022-08-30T10:56:34.702Z,1016.39
2022-08-30T10:57:34.778Z,1016.41
2022-08-30T10:58:34.844Z,1016.37
2022-08-30T10:59:34.902Z,1016.35
2022-08-30T11:00:34.888Z,1016.32
2022-08-30T11:01:34.963Z,1016.32
2022-08-30T11:02:35.031Z,1016.33
2022-08-30T11:03:35.077Z,1016.37
2022-08-30T11:04:35.144Z,1016.39
2022-08-30T11:05:35.182Z,1016.41
2022-08-30T11:06:35.222Z,1016.38
2022-08-30T11:07:35.266Z,1016.35
2022-08-30T11:08:35.330Z,1016.39
2022-08-30T11:09:36.019Z,1016.42
2022-08-30T11:10:35.442Z,1016.34
2022-08-30T11:11:35.471Z,1016.31
2022-08-30T11:12:35.558Z,1016.32
2022-08-30T11:13:35.472Z,1016.31
2022-08-30T11:14:35.511Z,1016.33
2022-08-30T11:15:35.505Z,1016.33
2022-08-30T11:16:35.514Z,1016.31
2022-08-30T11:17:35.572Z,1016.30
2022-08-30T11:18:35.602Z,1016.38
2022-08-30T11:19:35.628Z,1016.34
2022-08-30T11:20:35.664Z,1016.38
2022-08-30T11:21:35.685Z,1016.34
2022-08-30T11:22:39.020Z,1016.30
2022-08-30T11:23:35.767Z,1016.30
2022-08-30T11:24:35.804Z,1016.26
2022-08-30T11:25:38.610Z,1016.22
2022-08-30T11:26:35.812Z,1016.35
2022-08-30T11:27:35.859Z,1016.28
2022-08-30T11:28:35.885Z,1016.23
2022-08-30T11:29:35.913Z,1016.24
2022-08-30T11:30:35.924Z,1016.26
2022-08-30T11:31:35.872Z,1016.13
2022-08-30T11:32:35.935Z,1016.11
2022-08-30T11:33:35.845Z,1016.21
2022-08-30T11:34:35.845Z,1016.21
2022-08-30T11:35:35.786Z,1016.11
2022-08-30T11:37:36.945Z,1016.23
2022-08-30T11:38:35.719Z,1016.09
2022-08-30T11:39:35.626Z,1016.15
2022-08-30T11:40:35.626Z,1016.08
2022-08-30T11:41:40.831Z,1016.03
2022-08-30T11:42:36.542Z,1015.93
2022-08-30T11:43:36.867Z,1015.87
2022-08-30T11:44:35.449Z,1015.86
2022-08-30T11:45:35.466Z,1015.86
2022-08-30T11:46:35.356Z,1015.92
2022-08-30T11:47:35.353Z,1015.84
2022-08-30T11:48:35.349Z,1015.87
2022-08-30T11:49:35.332Z,1015.85
2022-08-30T11:50:35.306Z,1015.79
2022-08-30T11:51:35.277Z,1015.75
2022-08-30T11:52:35.249Z,1015.81
2022-08-30T11:53:35.184Z,1015.77
2022-08-30T11:54:35.168Z,1015.77
2022-08-30T11:55:35.121Z,1015.76
2022-08-30T11:56:35.098Z,1015.77
2022-08-30T11:57:35.068Z,1015.70
2022-08-30T11:58:35.038Z,1015.69
2022-08-30T11:59:35.035Z,1015.72
2022-08-30T12:00:35.368Z,1015.69
2022-08-30T12:01:51.886Z,1015.67
2022-08-30T12:02:35.896Z,1015.67
2022-08-30T12:03:35.306Z,1015.72
2022-08-30T12:04:34.697Z,1015.70
2022-08-30T12:05:34.671Z,1015.68
2022-08-30T12:06:34.680Z,1015.69
2022-08-30T12:07:35.797Z,1015.71
2022-08-30T12:08:34.594Z,1015.73
2022-08-30T12:09:34.530Z,1015.67